Time;durP1;ratioP1;P1;durP2;ratioP2;P2;SDS_P1;SDS_P2;PMS_P1;PMS_P2;Temp;Humidity;BMP_temperature;BMP_pressure;BME280_temperature;BME280_humidity;BME280_pressure;Samples;Min_cycle;Max_cycle;Signal;HPM_P1;HPM_P2
2021/04/06 00:01:45;;;;;;;9.43;2.28;;;2.20;99.90;;;;;;5054514;28;20355;-85
2021/04/06 00:04:25;;;;;;;14.20;1.80;;;2.30;99.90;;;;;;5066081;28;20022;-86
2021/04/06 00:06:57;;;;;;;13.38;1.65;;;2.30;99.90;;;;;;5051520;28;20579;-87
2021/04/06 00:09:25;;;;;;;;;;;2.40;99.90;;;;;;5067610;28;20237;-86
2021/04/06 00:11:56;;;;;;;16.92;2.45;;;2.40;99.90;;;;;;5069203;28;20398;-85
2021/04/06 00:14:23;;;;;;;9.88;2.00;;;2.50;99.90;;;;;;5070916;28;20036;-86
2021/04/06 00:16:51;;;;;;;10.13;1.77;;;2.40;99.90;;;;;;5060011;28;20056;-86
2021/04/06 00:19:19;;;;;;;10.65;1.45;;;2.40;99.90;;;;;;5045940;28;20044;-85
2021/04/06 00:21:50;;;;;;;7.85;1.58;;;2.40;99.90;;;;;;5066575;28;20033;-85
2021/04/06 00:24:20;;;;;;;12.13;2.63;;;2.40;99.90;;;;;;5056853;28;20078;-86
2021/04/06 00:26:54;;;;;;;12.65;2.20;;;2.40;99.90;;;;;;5072410;28;20029;-86
2021/04/06 00:29:25;;;;;;;5.82;1.50;;;2.40;99.90;;;;;;5056351;28;20078;-86
2021/04/06 00:31:56;;;;;;;7.65;1.58;;;2.40;99.90;;;;;;5070529;28;20039;-86
2021/04/06 00:34:22;;;;;;;7.47;1.80;;;2.40;99.90;;;;;;5061233;28;20055;-87
2021/04/06 00:37:01;;;;;;;8.30;1.25;;;2.40;99.90;;;;;;5062395;28;20028;-86
2021/04/06 00:39:34;;;;;;;8.60;1.08;;;2.40;99.90;;;;;;5088238;28;20031;-87
2021/04/06 00:42:15;;;;;;;11.52;1.88;;;2.40;99.90;;;;;;5058013;28;20032;-87
2021/04/06 00:44:49;;;;;;;12.98;1.98;;;2.40;99.90;;;;;;5063874;28;20103;-85
2021/04/06 00:47:26;;;;;;;12.85;2.35;;;2.40;99.90;;;;;;5068259;28;20028;-85
2021/04/06 00:49:54;;;;;;;12.80;2.35;;;2.40;99.90;;;;;;5056919;28;20027;-86
2021/04/06 00:52:22;;;;;;;8.68;1.58;;;2.40;99.90;;;;;;5068879;28;20332;-86
2021/04/06 00:54:57;;;;;;;13.75;2.50;;;2.40;99.90;;;;;;5064658;28;20051;-87
2021/04/06 00:57:32;;;;;;;7.53;1.60;;;2.50;99.90;;;;;;5041919;28;20131;-85
2021/04/06 01:00:20;;;;;;;9.35;1.73;;;2.50;99.90;;;;;;5057785;28;20055;-86
2021/04/06 01:03:17;;;;;;;9.60;1.75;;;2.50;99.90;;;;;;5063558;28;20057;-87
2021/04/06 01:06:01;;;;;;;11.88;1.88;;;2.50;99.90;;;;;;5053404;28;20134;-86
2021/04/06 01:08:37;;;;;;;9.52;2.17;;;2.50;99.90;;;;;;5079992;28;20020;-85
2021/04/06 01:11:05;;;;;;;16.27;2.88;;;2.50;99.90;;;;;;5053802;28;20040;-88
2021/04/06 01:13:37;;;;;;;13.35;2.17;;;2.50;99.90;;;;;;5088230;28;20036;-86
2021/04/06 01:16:04;;;;;;;17.90;2.83;;;2.40;99.90;;;;;;5058903;28;20024;-87
2021/04/06 01:18:31;;;;;;;11.77;1.88;;;2.40;99.90;;;;;;5065515;28;20033;-86
2021/04/06 01:20:57;;;;;;;12.68;1.92;;;2.30;99.90;;;;;;5049553;28;20040;-86
2021/04/06 01:23:26;;;;;;;12.75;2.08;;;2.30;99.90;;;;;;5058276;28;20021;-86
2021/04/06 01:25:56;;;;;;;10.35;2.03;;;2.20;99.90;;;;;;5087209;28;20032;-85
2021/04/06 01:28:28;;;;;;;13.95;2.03;;;2.10;99.90;;;;;;5061247;28;20036;-87
2021/04/06 01:31:14;;;;;;;10.52;2.10;;;2.10;99.90;;;;;;5055768;28;20065;-88
2021/04/06 01:33:42;;;;;;;7.25;1.80;;;2.00;99.90;;;;;;5049624;28;20061;-88
2021/04/06 01:36:08;;;;;;;13.55;4.18;;;2.00;99.90;;;;;;5069136;28;20112;-86
2021/04/06 01:38:38;;;;;;;10.43;2.03;;;2.00;99.90;;;;;;5061519;28;20429;-86
2021/04/06 01:41:22;;;;;;;12.63;2.00;;;2.00;99.90;;;;;;5066119;28;20439;-85
2021/04/06 01:43:53;;;;;;;16.55;3.05;;;2.00;99.90;;;;;;5067583;28;20037;-86
2021/04/06 01:46:30;;;;;;;11.60;2.28;;;2.00;99.90;;;;;;5058124;28;20036;-87
2021/04/06 01:48:56;;;;;;;13.27;2.63;;;2.10;99.90;;;;;;5058446;28;20528;-87
2021/04/06 01:51:22;;;;;;;15.30;2.00;;;2.20;99.90;;;;;;5050037;28;20032;-85
2021/04/06 01:53:49;;;;;;;11.48;2.10;;;2.20;99.90;;;;;;5068600;28;20025;-86
2021/04/06 01:56:25;;;;;;;15.48;2.42;;;2.20;99.90;;;;;;5034108;28;20075;-87
2021/04/06 01:58:55;;;;;;;16.73;3.88;;;2.30;99.90;;;;;;5036277;28;20033;-87
2021/04/06 02:01:23;;;;;;;18.85;3.30;;;2.30;99.90;;;;;;5071269;28;20021;-85
2021/04/06 02:06:29;;;;;;;16.50;3.38;;;2.30;99.90;;;;;;5058477;28;20040;-86
2021/04/06 02:08:56;;;;;;;16.80;2.50;;;2.20;99.90;;;;;;5057802;28;20060;-85
2021/04/06 02:11:31;;;;;;;16.38;2.30;;;2.30;99.90;;;;;;5075361;28;20016;-85
2021/04/06 02:14:24;;;;;;;9.43;2.25;;;2.20;99.90;;;;;;5073282;28;20111;-85
2021/04/06 02:17:02;;;;;;;13.10;2.10;;;2.20;99.90;;;;;;5067865;28;20476;-87
2021/04/06 02:19:37;;;;;;;14.50;2.20;;;2.10;99.90;;;;;;5075357;28;20073;-88
2021/04/06 02:22:05;;;;;;;11.35;1.65;;;2.10;99.90;;;;;;5075783;28;20099;-87
2021/04/06 02:24:41;;;;;;;11.30;1.60;;;2.00;99.90;;;;;;5074031;28;20024;-87
2021/04/06 02:27:24;;;;;;;10.15;2.58;;;2.00;99.90;;;;;;5074411;28;20079;-87
2021/04/06 02:30:16;;;;;;;14.10;1.88;;;1.90;99.90;;;;;;5077973;28;20078;-87
2021/04/06 02:32:43;;;;;;;8.73;1.70;;;1.90;99.90;;;;;;5094487;28;20039;-87
2021/04/06 02:35:14;;;;;;;13.02;2.58;;;1.90;99.90;;;;;;5077743;28;20027;-87
2021/04/06 02:37:45;;;;;;;13.35;2.05;;;1.80;99.90;;;;;;5059792;28;20036;-86
2021/04/06 02:40:14;;;;;;;12.20;2.10;;;1.80;99.90;;;;;;5077250;28;20031;-87
2021/04/06 02:42:44;;;;;;;13.27;1.80;;;1.80;99.90;;;;;;5080012;28;20121;-87
2021/04/06 02:45:30;;;;;;;10.35;2.03;;;1.80;99.90;;;;;;5097907;28;20039;-87
2021/04/06 02:48:18;;;;;;;14.57;2.47;;;1.70;99.90;;;;;;5061262;28;20070;-87
2021/04/06 02:50:45;;;;;;;12.20;2.42;;;1.70;99.90;;;;;;5077000;28;20034;-88
2021/04/06 02:53:16;;;;;;;15.13;1.85;;;1.70;99.90;;;;;;5044573;28;20031;-87
2021/04/06 02:55:42;;;;;;;9.98;1.70;;;1.70;99.90;;;;;;5061319;28;20081;-88
2021/04/06 02:58:14;;;;;;;13.43;3.15;;;1.70;99.90;;;;;;5078567;28;20039;-87
2021/04/06 03:00:41;;;;;;;13.82;2.30;;;1.70;99.90;;;;;;5059731;28;20475;-88
2021/04/06 03:03:27;;;;;;;13.50;2.22;;;1.70;99.90;;;;;;5060633;28;20051;-87
2021/04/06 03:06:07;;;;;;;9.55;2.03;;;1.70;99.90;;;;;;5095754;28;20077;-87
2021/04/06 03:08:36;;;;;;;10.45;1.95;;;1.70;99.90;;;;;;5076935;28;20032;-88
2021/04/06 03:11:06;;;;;;;12.38;1.55;;;1.70;99.90;;;;;;5077233;28;20034;-87
2021/04/06 03:13:33;;;;;;;13.52;2.50;;;1.60;99.90;;;;;;5077749;28;20111;-87
2021/04/06 03:15:59;;;;;;;11.75;2.03;;;1.60;99.90;;;;;;5077010;28;20118;-88
2021/04/06 03:18:37;;;;;;;11.50;1.67;;;1.70;99.90;;;;;;5096510;28;20067;-87
2021/04/06 03:21:05;;;;;;;8.07;1.35;;;1.70;99.90;;;;;;5077973;28;20494;-87
2021/04/06 03:23:32;;;;;;;12.30;1.30;;;1.80;99.90;;;;;;5044929;28;20028;-87
2021/04/06 03:26:00;;;;;;;9.13;1.92;;;1.90;99.90;;;;;;5060399;28;20040;-86
2021/04/06 03:28:38;;;;;;;11.50;1.75;;;1.90;99.90;;;;;;5077662;28;20016;-87
2021/04/06 03:31:17;;;;;;;8.48;1.23;;;1.80;99.90;;;;;;5059807;28;20152;-85
2021/04/06 03:33:47;;;;;;;6.00;1.40;;;1.70;99.90;;;;;;5076908;28;20070;-85
2021/04/06 03:36:27;;;;;;;7.03;1.23;;;1.50;99.90;;;;;;5059685;28;20035;-85
2021/04/06 03:38:57;;;;;;;9.50;2.28;;;1.40;99.90;;;;;;5076955;28;20081;-85
2021/04/06 03:41:27;;;;;;;6.15;1.10;;;1.30;99.90;;;;;;5076379;28;20028;-85
2021/04/06 03:44:15;;;;;;;6.13;0.82;;;1.20;99.90;;;;;;5076274;28;20130;-85
2021/04/06 03:46:42;;;;;;;7.57;1.35;;;1.20;99.90;;;;;;5093931;28;20061;-86
2021/04/06 03:49:24;;;;;;;9.40;1.45;;;1.20;99.90;;;;;;5076649;28;20066;-86
2021/04/06 03:52:05;;;;;;;6.95;1.20;;;1.30;99.90;;;;;;5076536;28;20048;-86
2021/04/06 03:54:40;;;;;;;6.18;1.13;;;1.30;99.90;;;;;;5076712;28;20031;-86
2021/04/06 03:57:45;;;;;;;11.23;2.15;;;1.30;99.90;;;;;;5094302;28;20063;-86
2021/04/06 04:00:12;;;;;;;8.18;1.40;;;1.40;99.90;;;;;;5076298;28;20024;-86
2021/04/06 04:02:38;;;;;;;7.13;1.77;;;1.40;99.90;;;;;;5074854;28;20122;-86
2021/04/06 04:05:06;;;;;;;11.05;1.60;;;1.40;99.90;;;;;;5059439;28;20056;-86
2021/04/06 04:07:37;;;;;;;9.10;1.40;;;1.50;99.90;;;;;;5059862;28;20093;-86
2021/04/06 04:10:11;;;;;;;6.57;1.27;;;1.60;99.90;;;;;;5059868;28;20041;-86
2021/04/06 04:12:37;;;;;;;15.95;2.00;;;1.60;99.90;;;;;;5078147;28;20115;-86
2021/04/06 04:15:05;;;;;;;10.75;2.25;;;1.50;99.90;;;;;;5097410;28;20107;-87
2021/04/06 04:17:31;;;;;;;8.32;1.70;;;1.40;99.90;;;;;;5061964;28;20028;-87
2021/04/06 04:19:57;;;;;;;8.75;1.35;;;1.40;99.90;;;;;;5062914;28;20036;-86
2021/04/06 04:22:23;;;;;;;7.90;1.35;;;1.40;99.90;;;;;;5079070;28;20349;-88
2021/04/06 04:24:48;;;;;;;9.02;1.00;;;1.40;99.90;;;;;;5079084;28;20542;-87
2021/04/06 04:27:14;;;;;;;15.00;2.45;;;1.50;99.90;;;;;;5079336;28;20032;-86
2021/04/06 04:29:40;;;;;;;6.18;1.10;;;1.50;99.90;;;;;;5079069;28;20464;-87
2021/04/06 04:32:23;;;;;;;9.00;1.30;;;1.50;99.90;;;;;;5091620;28;20131;-90
2021/04/06 04:34:54;;;;;;;9.98;1.23;;;1.50;99.90;;;;;;5080537;28;20106;-88
2021/04/06 04:37:21;;;;;;;8.90;1.25;;;1.40;99.90;;;;;;5044121;28;20037;-87
2021/04/06 04:39:46;;;;;;;9.38;1.25;;;1.40;99.90;;;;;;5037733;28;20036;-87
2021/04/06 04:42:13;;;;;;;5.80;1.13;;;1.30;99.90;;;;;;5093176;28;20022;-87
2021/04/06 04:44:40;;;;;;;7.20;1.08;;;1.30;99.90;;;;;;5048323;28;20047;-87
2021/04/06 04:47:05;;;;;;;5.38;1.10;;;1.20;99.90;;;;;;5052680;28;20468;-87
2021/04/06 04:49:34;;;;;;;8.73;1.60;;;1.20;99.90;;;;;;5054291;28;20162;-85
2021/04/06 04:52:01;;;;;;;9.70;2.20;;;1.20;99.90;;;;;;5059277;28;20504;-88
2021/04/06 04:54:27;;;;;;;10.50;1.55;;;1.10;99.90;;;;;;5074628;28;20116;-86
2021/04/06 04:56:54;;;;;;;9.23;1.50;;;1.10;99.90;;;;;;5083954;28;20039;-87
2021/04/06 04:59:22;;;;;;;7.88;1.52;;;1.10;99.90;;;;;;5048736;28;20032;-88
2021/04/06 05:01:48;;;;;;;7.43;1.25;;;1.10;99.90;;;;;;5071231;28;20024;-86
2021/04/06 05:04:14;;;;;;;8.27;2.80;;;1.10;99.90;;;;;;5078673;28;20027;-87
2021/04/06 05:06:43;;;;;;;5.05;1.00;;;1.20;99.90;;;;;;5039661;28;20044;-87
2021/04/06 05:09:17;;;;;;;5.75;1.23;;;1.20;99.90;;;;;;5085350;28;20028;-87
2021/04/06 05:11:43;;;;;;;8.82;2.00;;;1.30;99.90;;;;;;5075362;28;20434;-88
2021/04/06 05:14:12;;;;;;;6.75;1.25;;;1.20;99.90;;;;;;5058086;28;20119;-88
2021/04/06 05:16:37;;;;;;;4.70;1.17;;;1.20;99.90;;;;;;5054927;28;20043;-88
2021/04/06 05:19:09;;;;;;;6.85;1.67;;;1.20;99.90;;;;;;5085098;28;20025;-87
2021/04/06 05:21:38;;;;;;;;;;;1.10;99.90;;;;;;5056062;28;20127;-89
2021/04/06 05:24:21;;;;;;;6.57;1.00;;;1.00;99.90;;;;;;5069776;28;19908;-91
2021/04/06 05:26:47;;;;;;;7.78;1.17;;;1.00;99.90;;;;;;5076045;28;20023;-88
2021/04/06 05:29:14;;;;;;;8.38;2.17;;;1.00;99.90;;;;;;5093972;28;20024;-89
2021/04/06 05:31:43;;;;;;;9.40;2.10;;;1.00;99.90;;;;;;5081260;28;20043;-89
2021/04/06 05:34:09;;;;;;;7.70;2.10;;;1.00;99.90;;;;;;5071597;28;20032;-88
2021/04/06 05:36:36;;;;;;;4.72;1.60;;;1.00;99.90;;;;;;5075480;28;20023;-89
2021/04/06 05:39:11;;;;;;;8.23;1.85;;;0.90;99.90;;;;;;5084263;28;20495;-89
2021/04/06 05:41:43;;;;;;;5.85;1.33;;;0.90;99.90;;;;;;5086928;28;20132;-89
2021/04/06 05:44:14;;;;;;;8.55;1.60;;;1.00;99.90;;;;;;5070105;28;20119;-88
2021/04/06 05:46:44;;;;;;;11.18;1.80;;;1.00;99.90;;;;;;5084486;28;20019;-87
2021/04/06 05:49:13;;;;;;;13.05;1.55;;;1.00;99.90;;;;;;5076978;28;20361;-87
2021/04/06 05:51:43;;;;;;;9.10;1.58;;;1.00;99.90;;;;;;5075175;28;20022;-89
2021/04/06 05:54:13;;;;;;;8.80;1.70;;;1.10;99.90;;;;;;5093389;28;20028;-89
2021/04/06 05:56:40;;;;;;;7.43;1.52;;;1.10;99.90;;;;;;5060261;28;20028;-88
2021/04/06 05:59:12;;;;;;;11.18;1.67;;;1.10;99.90;;;;;;5051252;28;20036;-90
2021/04/06 06:01:45;;;;;;;10.38;1.58;;;1.10;99.90;;;;;;5059535;28;20090;-90
2021/04/06 06:04:12;;;;;;;;;;;1.20;99.90;;;;;;5068196;28;20071;-90
2021/04/06 06:07:03;;;;;;;12.85;2.42;;;1.30;99.90;;;;;;5070902;28;19914;-89
2021/04/06 06:09:32;;;;;;;7.57;1.55;;;1.50;99.90;;;;;;5058886;28;20059;-91
2021/04/06 06:12:19;;;;;;;10.02;2.20;;;1.70;99.90;;;;;;5071145;28;20028;-89
2021/04/06 06:14:52;;;;;;;9.32;1.88;;;1.90;99.90;;;;;;5076711;28;20157;-88
2021/04/06 06:17:29;;;;;;;7.50;1.88;;;2.20;99.90;;;;;;5065515;28;20037;-88
2021/04/06 06:19:57;;;;;;;10.73;2.55;;;2.30;99.90;;;;;;5078590;28;20157;-89
2021/04/06 06:22:25;;;;;;;10.40;2.53;;;2.30;99.90;;;;;;5069502;28;20023;-88
2021/04/06 06:25:11;;;;;;;7.68;1.63;;;2.30;99.90;;;;;;5070527;28;20032;-88
2021/04/06 06:27:47;;;;;;;7.45;1.40;;;2.30;99.90;;;;;;5031929;28;20025;-89
2021/04/06 06:30:35;;;;;;;9.52;1.90;;;2.40;99.90;;;;;;5044911;28;20468;-87
2021/04/06 06:33:28;;;;;;;6.60;1.25;;;2.40;99.90;;;;;;5065069;28;20078;-88
2021/04/06 06:36:11;;;;;;;9.90;2.65;;;2.50;99.90;;;;;;5087359;28;20349;-88
2021/04/06 06:38:46;;;;;;;9.18;1.90;;;2.40;99.90;;;;;;5073661;28;20494;-88
2021/04/06 06:41:21;;;;;;;6.70;1.48;;;2.40;99.90;;;;;;5083760;28;20024;-87
2021/04/06 06:43:52;;;;;;;10.95;1.80;;;2.40;99.90;;;;;;5073548;28;20024;-88
2021/04/06 06:46:31;;;;;;;6.05;1.23;;;2.40;99.90;;;;;;5067554;28;20036;-88
2021/04/06 06:49:09;;;;;;;7.18;1.77;;;2.40;99.90;;;;;;5069096;28;20020;-88
2021/04/06 06:51:42;;;;;;;6.70;1.65;;;2.40;99.90;;;;;;5068882;28;20059;-89
2021/04/06 06:54:08;;;;;;;8.05;1.73;;;2.40;99.90;;;;;;5060352;28;20032;-87
2021/04/06 06:56:39;;;;;;;6.65;1.80;;;2.40;99.90;;;;;;5089762;28;20072;-87
2021/04/06 07:02:28;;;;;;;7.43;1.67;;;2.40;99.90;;;;;;5022325;28;20485;-89
2021/04/06 07:05:22;;;;;;;5.65;1.80;;;2.40;99.90;;;;;;5023375;28;20064;-88
2021/04/06 07:08:44;;;;;;;;;;;;;;;;;;;;;
2021/04/06 07:11:11;;;;;;;9.48;1.70;;;2.50;99.90;;;;;;4962477;28;20035;-86
2021/04/06 07:13:49;;;;;;;9.38;1.70;;;2.70;99.90;;;;;;4956932;28;20035;-88
2021/04/06 07:16:21;;;;;;;7.55;1.42;;;2.80;99.90;;;;;;4957189;28;20054;-89
2021/04/06 07:18:57;;;;;;;5.88;1.33;;;2.90;99.90;;;;;;4973719;28;20039;-88
2021/04/06 07:21:25;;;;;;;10.13;1.45;;;3.00;99.90;;;;;;4961231;28;21444;-88
2021/04/06 07:24:15;;;;;;;6.85;1.33;;;3.10;99.90;;;;;;4973904;28;20049;-88
2021/04/06 07:27:20;;;;;;;5.65;1.20;;;3.10;99.90;;;;;;5003418;28;20079;-90
2021/04/06 07:29:54;;;;;;;7.97;2.13;;;3.20;99.90;;;;;;5072071;28;20032;-89
2021/04/06 07:32:29;;;;;;;7.65;1.40;;;3.30;99.90;;;;;;5055911;28;20049;-87
2021/04/06 07:35:18;;;;;;;8.02;2.30;;;3.40;99.90;;;;;;5064078;28;20131;-88
2021/04/06 07:37:44;;;;;;;9.98;1.92;;;3.40;99.90;;;;;;5067505;28;20045;-88
2021/04/06 07:40:25;;;;;;;11.20;1.67;;;3.40;99.90;;;;;;5074098;28;20465;-90
2021/04/06 07:43:17;;;;;;;7.55;1.77;;;3.40;99.90;;;;;;5070057;28;20523;-86
2021/04/06 07:45:48;;;;;;;6.47;2.05;;;3.40;99.90;;;;;;5059624;28;20059;-88
2021/04/06 07:48:40;;;;;;;7.75;1.42;;;3.50;99.90;;;;;;5071352;28;20021;-87
2021/04/06 07:51:25;;;;;;;6.72;1.38;;;3.50;99.90;;;;;;5071666;28;20114;-88
2021/04/06 07:54:09;;;;;;;8.02;1.40;;;3.80;99.90;;;;;;5072630;28;20029;-87
2021/04/06 07:56:51;;;;;;;8.25;1.30;;;3.70;99.90;;;;;;5058712;28;20047;-88
2021/04/06 07:59:42;;;;;;;6.53;1.40;;;3.70;99.90;;;;;;5060216;28;20068;-87
2021/04/06 08:02:28;;;;;;;4.63;1.20;;;3.60;99.90;;;;;;5069080;28;20029;-86
2021/04/06 08:04:57;;;;;;;3.40;1.02;;;3.60;99.90;;;;;;5067069;28;20485;-86
2021/04/06 08:07:37;;;;;;;7.30;1.27;;;3.40;99.90;;;;;;5061225;28;20041;-86
2021/04/06 08:10:41;;;;;;;3.95;0.90;;;3.30;99.90;;;;;;5068475;28;20033;-87
2021/04/06 08:13:09;;;;;;;6.13;1.23;;;3.20;99.90;;;;;;5065503;28;20033;-87
2021/04/06 08:15:35;;;;;;;6.82;1.10;;;3.20;99.90;;;;;;5062714;28;20045;-87
2021/04/06 08:18:08;;;;;;;6.00;1.00;;;3.20;99.90;;;;;;5061919;28;20044;-88
2021/04/06 08:20:40;;;;;;;5.75;1.15;;;3.20;99.90;;;;;;5061218;28;20037;-89
2021/04/06 08:23:44;;;;;;;6.45;1.10;;;3.30;99.90;;;;;;5045507;28;20083;-88
2021/04/06 08:26:34;;;;;;;5.85;0.90;;;3.40;99.90;;;;;;5065912;28;20033;-88
2021/04/06 08:29:29;;;;;;;4.50;0.98;;;3.50;99.90;;;;;;5070952;28;20495;-88
2021/04/06 08:32:15;;;;;;;7.43;1.48;;;3.80;99.90;;;;;;5058247;28;20483;-86
2021/04/06 08:35:03;;;;;;;5.75;1.33;;;4.20;99.90;;;;;;5059557;28;20040;-88
2021/04/06 08:37:39;;;;;;;7.00;1.35;;;4.20;99.90;;;;;;5060058;28;20120;-88
2021/04/06 08:40:09;;;;;;;4.47;0.93;;;4.20;99.90;;;;;;5063618;28;20016;-85
2021/04/06 08:42:37;;;;;;;3.95;0.98;;;4.10;99.90;;;;;;5073489;28;20032;-87
2021/04/06 08:45:06;;;;;;;4.75;0.88;;;4.10;99.90;;;;;;5070126;28;20043;-88
2021/04/06 08:47:47;;;;;;;3.22;0.68;;;4.10;99.90;;;;;;5069763;28;20039;-86
2021/04/06 08:50:33;;;;;;;2.90;0.80;;;3.90;99.90;;;;;;5069959;28;20021;-88
2021/04/06 08:53:21;;;;;;;3.42;1.00;;;3.90;99.90;;;;;;5057058;28;20055;-88
2021/04/06 08:55:51;;;;;;;3.35;0.90;;;3.80;99.90;;;;;;5070143;28;20029;-89
2021/04/06 08:58:24;;;;;;;6.40;1.73;;;3.90;99.90;;;;;;5069829;28;20036;-88
2021/04/06 09:01:01;;;;;;;3.50;1.00;;;4.00;99.90;;;;;;5047417;28;20029;-87
2021/04/06 09:03:31;;;;;;;5.15;1.00;;;4.20;99.90;;;;;;5069676;28;20490;-88
2021/04/06 09:06:13;;;;;;;5.28;1.00;;;4.40;99.90;;;;;;5045494;28;20025;-87
2021/04/06 09:08:59;;;;;;;4.03;0.93;;;4.40;99.90;;;;;;5059663;28;20075;-86
2021/04/06 09:11:30;;;;;;;5.38;1.10;;;4.20;99.90;;;;;;5060622;28;20032;-87
2021/04/06 09:14:03;;;;;;;4.90;1.00;;;4.00;99.90;;;;;;5049347;28;20135;-88
2021/04/06 09:16:36;;;;;;;2.77;0.70;;;4.00;99.90;;;;;;5047179;28;20393;-89
2021/04/06 09:19:13;;;;;;;3.20;0.73;;;4.00;99.90;;;;;;5047661;28;20056;-88
2021/04/06 09:21:44;;;;;;;2.72;0.50;;;4.10;99.90;;;;;;5072668;28;20076;-88
2021/04/06 09:24:15;;;;;;;2.63;0.77;;;4.10;99.90;;;;;;5074041;28;20036;-88
2021/04/06 09:26:49;;;;;;;2.78;0.68;;;4.20;99.90;;;;;;5056740;28;20033;-87
2021/04/06 09:29:28;;;;;;;3.22;0.75;;;4.20;99.90;;;;;;5074496;28;20017;-87
2021/04/06 09:31:59;;;;;;;6.78;0.77;;;4.40;99.90;;;;;;5051540;28;20056;-87
2021/04/06 09:34:48;;;;;;;5.13;0.85;;;4.50;99.90;;;;;;5072530;28;20037;-88
2021/04/06 09:37:15;;;;;;;5.88;0.90;;;4.70;99.90;;;;;;5073308;28;20028;-87
2021/04/06 09:39:45;;;;;;;5.72;1.10;;;4.90;99.90;;;;;;5074680;28;20210;-89
2021/04/06 09:42:11;;;;;;;4.85;1.00;;;5.20;99.90;;;;;;5049905;28;20017;-88
2021/04/06 09:44:40;;;;;;;7.35;1.55;;;5.50;99.90;;;;;;5074845;28;20021;-88
2021/04/06 09:47:11;;;;;;;5.57;1.05;;;5.50;99.90;;;;;;5076895;28;20035;-87
2021/04/06 09:49:47;;;;;;;3.45;0.70;;;5.10;99.90;;;;;;5075087;28;20028;-87
2021/04/06 09:52:28;;;;;;;2.00;0.60;;;4.70;99.90;;;;;;5046191;28;20099;-88
2021/04/06 09:55:14;;;;;;;1.73;0.40;;;4.70;99.90;;;;;;5064584;28;20021;-87
2021/04/06 09:57:46;;;;;;;1.80;0.50;;;5.40;99.90;;;;;;5059985;28;20025;-86
2021/04/06 10:00:16;;;;;;;0.85;0.30;;;6.40;99.90;;;;;;5056509;28;20051;-87
2021/04/06 10:03:00;;;;;;;5.50;0.68;;;7.70;99.90;;;;;;5072764;28;20028;-87
2021/04/06 10:05:26;;;;;;;2.42;0.40;;;8.70;99.30;;;;;;5043069;28;20513;-88
2021/04/06 10:07:55;;;;;;;3.38;0.60;;;9.80;97.70;;;;;;5039967;28;20123;-88
2021/04/06 10:10:23;;;;;;;3.33;0.70;;;10.60;96.30;;;;;;5072859;28;20106;-89
2021/04/06 10:12:51;;;;;;;5.72;1.08;;;11.30;95.50;;;;;;5051838;28;20036;-90
2021/04/06 10:15:26;;;;;;;3.92;0.85;;;11.60;91.60;;;;;;5053292;28;20543;-90
2021/04/06 10:17:54;;;;;;;4.05;1.17;;;11.50;90.70;;;;;;5050799;28;20087;-90
2021/04/06 10:20:34;;;;;;;3.20;0.80;;;11.40;90.40;;;;;;5069500;28;20115;-89
2021/04/06 10:23:00;;;;;;;3.28;1.00;;;11.40;88.80;;;;;;5054553;28;20045;-89
2021/04/06 10:25:32;;;;;;;4.07;1.00;;;11.60;90.20;;;;;;5044228;28;20025;-89
2021/04/06 10:28:03;;;;;;;4.13;0.90;;;12.00;89.80;;;;;;5070433;28;20060;-90
2021/04/06 10:30:42;;;;;;;2.90;0.80;;;11.50;88.50;;;;;;5072854;28;20123;-90
2021/04/06 10:33:25;;;;;;;3.67;0.90;;;11.20;90.40;;;;;;5071570;28;20048;-90
2021/04/06 10:36:01;;;;;;;2.58;1.00;;;10.90;90.20;;;;;;5053237;28;20036;-89
2021/04/06 10:38:35;;;;;;;3.28;0.80;;;10.20;90.90;;;;;;5070967;28;20032;-90
2021/04/06 10:41:15;;;;;;;2.70;0.98;;;9.60;91.80;;;;;;5065657;28;20056;-89
2021/04/06 10:43:50;;;;;;;3.40;0.93;;;9.10;92.30;;;;;;5054743;28;20112;-88
2021/04/06 10:46:25;;;;;;;5.07;0.93;;;8.70;91.90;;;;;;5040591;28;20040;-89
2021/04/06 10:49:04;;;;;;;8.55;1.92;;;8.40;92.70;;;;;;5059664;28;20034;-91
2021/04/06 10:51:33;;;;;;;6.90;1.27;;;8.10;92.00;;;;;;5062444;28;20025;-86
2021/04/06 10:54:11;;;;;;;5.03;1.00;;;7.20;93.40;;;;;;5066490;28;20035;-87
2021/04/06 10:56:46;;;;;;;2.88;1.00;;;6.20;95.00;;;;;;5051893;28;20037;-87
2021/04/06 10:59:37;;;;;;;3.45;0.73;;;5.30;96.70;;;;;;5063136;28;20023;-89
2021/04/06 11:02:06;;;;;;;3.15;0.85;;;4.80;97.90;;;;;;5058158;28;20067;-88
2021/04/06 11:04:40;;;;;;;4.63;0.77;;;4.40;99.00;;;;;;5072732;28;20553;-88
2021/04/06 11:07:09;;;;;;;4.22;0.73;;;4.40;99.80;;;;;;5072938;28;20033;-88
2021/04/06 11:09:41;;;;;;;4.68;0.90;;;4.80;99.90;;;;;;5073081;28;20033;-86
2021/04/06 11:12:09;;;;;;;4.57;0.95;;;5.90;99.90;;;;;;5038670;28;20028;-86
2021/04/06 11:14:36;;;;;;;2.90;0.60;;;7.30;99.40;;;;;;5071237;28;20123;-87
2021/04/06 11:17:07;;;;;;;2.38;0.70;;;8.60;97.90;;;;;;5062046;28;20029;-89
2021/04/06 11:19:41;;;;;;;4.25;0.68;;;9.60;96.00;;;;;;5064017;28;20012;-88
2021/04/06 11:22:13;;;;;;;5.40;1.30;;;10.60;95.30;;;;;;5072527;28;20016;-88
2021/04/06 11:24:40;;;;;;;3.33;0.88;;;11.50;94.60;;;;;;5063695;28;20107;-86
2021/04/06 11:27:10;;;;;;;4.38;1.05;;;12.20;94.00;;;;;;5069268;28;20017;-87
2021/04/06 11:29:38;;;;;;;3.65;0.85;;;12.70;91.50;;;;;;5056239;28;20086;-88
2021/04/06 11:32:16;;;;;;;3.10;0.80;;;12.70;91.50;;;;;;5057102;28;20075;-89
2021/04/06 11:34:43;;;;;;;6.07;1.25;;;12.90;90.00;;;;;;5068434;28;20515;-89
2021/04/06 11:37:14;;;;;;;4.47;1.00;;;12.80;86.20;;;;;;5068556;28;20044;-89
2021/04/06 11:39:46;;;;;;;2.80;0.90;;;12.60;88.20;;;;;;5046147;28;20029;-87
2021/04/06 11:42:14;;;;;;;3.47;0.90;;;12.50;86.90;;;;;;5074610;28;20036;-87
2021/04/06 11:44:40;;;;;;;3.88;1.20;;;11.40;88.70;;;;;;5057123;28;20047;-85
2021/04/06 11:47:08;;;;;;;3.50;0.70;;;10.20;90.10;;;;;;5060875;28;20464;-85
2021/04/06 11:49:34;;;;;;;1.65;0.50;;;8.90;90.70;;;;;;5067085;28;20035;-85
2021/04/06 11:52:01;;;;;;;1.98;0.28;;;7.80;91.60;;;;;;5059740;28;20480;-85
2021/04/06 11:54:30;;;;;;;0.95;0.20;;;6.70;92.70;;;;;;5069262;28;20032;-85
2021/04/06 11:57:03;;;;;;;2.10;0.30;;;5.90;94.30;;;;;;5056220;28;20045;-86
2021/04/06 11:59:34;;;;;;;2.47;0.30;;;5.50;95.40;;;;;;5069992;28;20024;-86
2021/04/06 12:02:03;;;;;;;2.97;0.40;;;5.10;96.10;;;;;;5077309;28;20135;-86
2021/04/06 12:04:38;;;;;;;1.05;0.20;;;5.00;97.00;;;;;;5062009;28;20020;-86
2021/04/06 12:07:08;;;;;;;0.65;0.30;;;5.20;97.10;;;;;;5077181;28;20040;-88
2021/04/06 12:09:35;;;;;;;1.45;0.40;;;5.50;96.80;;;;;;5062451;28;20021;-87
2021/04/06 12:12:09;;;;;;;1.17;0.30;;;5.80;97.00;;;;;;5039418;28;20548;-86
2021/04/06 12:14:41;;;;;;;1.67;0.40;;;6.10;96.90;;;;;;5057029;28;20033;-87
2021/04/06 12:17:09;;;;;;;1.60;0.40;;;6.30;96.80;;;;;;5065018;28;20040;-89
2021/04/06 12:19:38;;;;;;;1.50;0.40;;;6.40;97.10;;;;;;5075127;28;20123;-88
2021/04/06 12:22:04;;;;;;;1.98;0.40;;;6.90;97.10;;;;;;5075731;28;20031;-86
2021/04/06 12:24:31;;;;;;;2.35;0.57;;;7.40;97.00;;;;;;5076600;28;20029;-87
2021/04/06 12:26:59;;;;;;;2.35;0.50;;;8.10;96.80;;;;;;5076799;28;20131;-87
2021/04/06 12:29:26;;;;;;;2.83;0.82;;;9.10;96.50;;;;;;5064126;28;20036;-88
2021/04/06 12:31:53;;;;;;;2.90;0.70;;;10.00;94.00;;;;;;5067773;28;20511;-86
2021/04/06 12:34:19;;;;;;;3.00;0.80;;;10.80;93.60;;;;;;5037800;28;20106;-87
2021/04/06 12:36:46;;;;;;;2.72;0.98;;;11.30;92.70;;;;;;5062992;28;20396;-87
2021/04/06 12:39:12;;;;;;;4.20;1.13;;;11.80;91.70;;;;;;5076599;28;20029;-87
2021/04/06 12:41:40;;;;;;;4.53;1.17;;;12.30;91.00;;;;;;5074830;28;20032;-89
2021/04/06 12:44:08;;;;;;;4.43;1.00;;;12.60;90.40;;;;;;5040854;28;20056;-89
2021/04/06 12:46:37;;;;;;;3.55;0.90;;;12.80;88.00;;;;;;5059021;28;20499;-90
2021/04/06 12:49:07;;;;;;;3.97;0.90;;;12.20;88.40;;;;;;5058370;28;20028;-89
2021/04/06 12:51:40;;;;;;;4.57;0.98;;;11.80;90.30;;;;;;5073605;28;20484;-87
2021/04/06 12:54:06;;;;;;;4.80;0.80;;;11.10;88.60;;;;;;5060721;28;20037;-91
2021/04/06 12:56:33;;;;;;;3.95;0.88;;;10.00;90.00;;;;;;5063401;28;20054;-89
2021/04/06 12:59:03;;;;;;;3.38;0.50;;;8.80;90.70;;;;;;5063229;28;20415;-89
2021/04/06 13:01:32;;;;;;;2.08;0.32;;;7.70;91.40;;;;;;5060283;28;20025;-88
2021/04/06 13:04:20;;;;;;;1.98;0.60;;;6.80;92.00;;;;;;5041807;28;20087;-89
2021/04/06 13:06:46;;;;;;;3.72;0.40;;;6.20;92.90;;;;;;5059087;28;20025;-87
2021/04/06 13:09:15;;;;;;;1.25;0.30;;;5.80;93.40;;;;;;5059565;28;20044;-89
2021/04/06 13:11:46;;;;;;;1.60;0.30;;;5.60;93.70;;;;;;5067547;28;20427;-88
2021/04/06 13:14:11;;;;;;;3.10;0.80;;;5.50;93.60;;;;;;5060942;28;20039;-87
2021/04/06 13:16:49;;;;;;;3.00;0.40;;;5.50;94.00;;;;;;5049835;28;20476;-86
2021/04/06 13:19:16;;;;;;;0.90;0.30;;;5.60;94.10;;;;;;5048982;28;20037;-88
2021/04/06 13:21:49;;;;;;;1.02;0.20;;;5.70;94.30;;;;;;5060447;28;20143;-88
2021/04/06 13:24:17;;;;;;;3.03;0.82;;;5.70;94.30;;;;;;5060471;28;20541;-86
2021/04/06 13:26:44;;;;;;;4.20;0.60;;;5.50;94.20;;;;;;5058855;28;20040;-88
2021/04/06 13:29:13;;;;;;;4.55;0.65;;;5.50;94.60;;;;;;5039081;28;20035;-89
2021/04/06 13:31:44;;;;;;;3.10;0.77;;;5.50;94.60;;;;;;5057956;28;20414;-88
2021/04/06 13:34:16;;;;;;;4.70;1.10;;;5.70;95.40;;;;;;5069560;28;20050;-88